Reese River, Nevada
Current Conditions -  °F | °C
As of 12:35 PM on Monday 24 Nov 2014 (Local Time) from K05U Reporting Station
Clear Clear  
Wind Chill: 37°   Ceiling: Unl
Heat Index: 41°   Visibility: 10mi
Dew Point: 16°   Wind: 6mph
Humidity: 36%   Direction: 40°NE
Pressure: 30.45"   Gusts: NA
Location:  39.7407°N, 117.085°W
Report Text: K05U 242035Z AUTO 04005KT 10SM CLR 05/M09 A3045 RMK AO1
Loading
Personal Weather Stations






























Interactive Weather Map New forecast layout! Learn more

10-Day Weather Forecast

Advertisements
Track Severe Weather on mobile